Hlavní strana
METAR-TAF:

METAR-TAF

Letiště :

Halmstad, Švédsko

zeměpisná šířka: 56-41N, zeměpisná délka: 012-50E, výška: 30 m

Aktuální stav počasí

Zpráva byla vytvořena před 15 minutami, v 18:20 UTC
Západoseverozápadní vítr 6 kt
Teplota 2°C
Vlhkost vzduchu 75%
Tlak 1023 hPa
Viditelnost 10 km a více

METAR: ESMT 131820Z AUTO 30006KT 9999 NCD 02/M02 Q1023

Čas: 20:35 (18:35 UTC)

Předpověď počasí

Zpráva byla vytvořena před 4 hodinami a 29 minutami, v 14:06 UTC
Předpověď platná od 13 v 15 UTC do 13 v 19 UTC
Západoseverozápadní vítr 12 kt
Viditelnost 10 km a více
Polojasno ve výšce 2500 ft

TAF: ESMT 131406Z 1315/1319 30012KT 9999 SCT025

Stav a předpovědi počasí z více než 4 000 letišť (zprávy METAR a TAF).

Červené a žluté tečky na mapě představují dostupné meteorologické stanice.

Když kurzor umístíte na tečku, zobrazí se název stanice.

Pak kliknutím zobrazíte stav a předpověď počasí.

Chcete-li změnit mapu, kliknutím na zelené tlačítko se znaménkem +mapu přiblížíte, kliknutím na zelené tlačítko se znaménkem – mapu oddálíte a kliknutím na zelené šipky přejdete na sousední mapy.


METAR-TAF: